Portada
METAR-TAF:

METAR-TAF

Aeropuertos :

Muskogee, Oklahoma, Estados Unidos

latitud: 35-39-25N, longitud: 095-21-35W, altitud: 185 m

Observación

El informe se hizo hace 1 hora y 1 minutos, a las 04:53 UTC
Viento calma
Temperatura 22°C
Humedad 88%
Presión 1013 hPa
Visibilidad: 16.1 km
Cielo despejado

METAR: KMKO 130453Z AUTO 00000KT 10SM CLR 22/20 A2992 RMK AO2 SLP123 T02170200

Hora: 00:54 (05:54 UTC)


TAF: falta

Observaciones y pronósticos meteorológicos de más de 4000 aeropuertos (mensajes METAR y TAF).

Los puntos amarillos y rojos representan las estaciones disponibles.

Ponga el ratón en el punto deseado para ver el nombre de la estación.

Haga clic para ver las observaciones y los pronósticos meteorológicos.

Para cambiar el mapa : haga clic en los botones verdes con una cruz de color negro para hacer un zoom, en el botón verde con un guión para alejar o en las flechas verdes para mapas adyacentes.


METAR-TAF: